sensor_id;sensor_type;location;lat;lon;timestamp;pressure;altitude;pressure_sealevel;temperature;humidity
9460;BME280;4768;42.664;23.240;2023-06-04T00:00:19;-9817.91;;;14.26;nan
9460;BME280;4768;42.664;23.240;2023-06-04T00:02:45;-9818.75;;;14.29;nan
9460;BME280;4768;42.664;23.240;2023-06-04T00:05:12;-9817.34;;;14.24;nan
9460;BME280;4768;42.664;23.240;2023-06-04T00:07:39;-9817.06;;;14.23;nan
9460;BME280;4768;42.664;23.240;2023-06-04T00:10:06;-9819.31;;;14.31;nan
9460;BME280;4768;42.664;23.240;2023-06-04T00:12:33;-9819.91;;;14.33;nan
9460;BME280;4768;42.664;23.240;2023-06-04T00:15:00;-9819.63;;;14.32;nan
9460;BME280;4768;42.664;23.240;2023-06-04T00:19:54;-9819.03;;;14.30;nan
9460;BME280;4768;42.664;23.240;2023-06-04T00:22:21;-9818.47;;;14.28;nan
9460;BME280;4768;42.664;23.240;2023-06-04T00:24:49;-9817.19;;;14.24;nan
9460;BME280;4768;42.664;23.240;2023-06-04T00:27:15;-9816.19;;;14.20;nan
9460;BME280;4768;42.664;23.240;2023-06-04T00:29:43;-9816.75;;;14.22;nan
9460;BME280;4768;42.664;23.240;2023-06-04T00:32:10;-9816.47;;;14.21;nan
9460;BME280;4768;42.664;23.240;2023-06-04T00:34:38;-9816.34;;;14.21;nan
9460;BME280;4768;42.664;23.240;2023-06-04T00:37:05;-9815.78;;;14.19;nan
9460;BME280;4768;42.664;23.240;2023-06-04T00:39:32;-9813.63;;;14.11;nan
9460;BME280;4768;42.664;23.240;2023-06-04T00:42:00;-9813.91;;;14.12;nan
9460;BME280;4768;42.664;23.240;2023-06-04T00:44:26;-9812.34;;;14.07;nan
9460;BME280;4768;42.664;23.240;2023-06-04T00:46:54;-9808.78;;;13.95;nan
9460;BME280;4768;42.664;23.240;2023-06-04T00:49:20;-9813.22;;;14.10;nan
9460;BME280;4768;42.664;23.240;2023-06-04T00:51:49;-9813.78;;;14.12;nan
9460;BME280;4768;42.664;23.240;2023-06-04T00:54:19;-9810.22;;;14.00;nan
9460;BME280;4768;42.664;23.240;2023-06-04T00:56:47;-9808.94;;;13.95;nan
9460;BME280;4768;42.664;23.240;2023-06-04T00:59:14;-9808.22;;;13.93;nan
9460;BME280;4768;42.664;23.240;2023-06-04T01:01:46;-9806.78;;;13.88;nan
9460;BME280;4768;42.664;23.240;2023-06-04T01:04:22;-9806.66;;;13.87;nan
9460;BME280;4768;42.664;23.240;2023-06-04T01:06:53;-9804.81;;;13.81;nan
9460;BME280;4768;42.664;23.240;2023-06-04T01:09:25;-9803.38;;;13.76;nan
9460;BME280;4768;42.664;23.240;2023-06-04T01:11:52;-9803.25;;;13.75;nan
9460;BME280;4768;42.664;23.240;2023-06-04T01:14:19;-9802.38;;;13.72;nan
9460;BME280;4768;42.664;23.240;2023-06-04T01:16:49;-9801.53;;;13.69;nan
9460;BME280;4768;42.664;23.240;2023-06-04T01:19:47;-9801.69;;;13.70;nan
9460;BME280;4768;42.664;23.240;2023-06-04T01:22:29;-9800.97;;;13.67;nan
9460;BME280;4768;42.664;23.240;2023-06-04T01:25:02;-9802.69;;;13.73;nan
9460;BME280;4768;42.664;23.240;2023-06-04T01:27:29;-9801.69;;;13.70;nan
9460;BME280;4768;42.664;23.240;2023-06-04T01:29:57;-9800.81;;;13.67;nan
9460;BME280;4768;42.664;23.240;2023-06-04T01:32:26;-9802.69;;;13.73;nan
9460;BME280;4768;42.664;23.240;2023-06-04T01:34:54;-9801.41;;;13.69;nan
9460;BME280;4768;42.664;23.240;2023-06-04T01:37:22;-9801.53;;;13.69;nan
9460;BME280;4768;42.664;23.240;2023-06-04T01:39:49;-9801.97;;;13.71;nan
9460;BME280;4768;42.664;23.240;2023-06-04T01:42:18;-9801.53;;;13.69;nan
9460;BME280;4768;42.664;23.240;2023-06-04T01:44:45;-9801.81;;;13.70;nan
9460;BME280;4768;42.664;23.240;2023-06-04T01:47:12;-9803.09;;;13.75;nan
9460;BME280;4768;42.664;23.240;2023-06-04T01:49:39;-9801.97;;;13.71;nan
9460;BME280;4768;42.664;23.240;2023-06-04T01:52:07;-9803.97;;;13.78;nan
9460;BME280;4768;42.664;23.240;2023-06-04T01:54:35;-9803.97;;;13.78;nan
9460;BME280;4768;42.664;23.240;2023-06-04T01:57:03;-9802.69;;;13.73;nan
9460;BME280;4768;42.664;23.240;2023-06-04T01:59:30;-9804.25;;;13.79;nan
9460;BME280;4768;42.664;23.240;2023-06-04T02:01:58;-9805.53;;;13.83;nan
9460;BME280;4768;42.664;23.240;2023-06-04T02:04:27;-9806.94;;;13.88;nan
9460;BME280;4768;42.664;23.240;2023-06-04T02:06:53;-9807.94;;;13.92;nan
9460;BME280;4768;42.664;23.240;2023-06-04T02:09:21;-9808.50;;;13.94;nan
9460;BME280;4768;42.664;23.240;2023-06-04T02:11:49;-9809.66;;;13.98;nan
9460;BME280;4768;42.664;23.240;2023-06-04T02:14:16;-9809.78;;;13.98;nan
9460;BME280;4768;42.664;23.240;2023-06-04T02:16:42;-9811.06;;;14.02;nan
9460;BME280;4768;42.664;23.240;2023-06-04T02:19:09;-9811.94;;;14.05;nan
9460;BME280;4768;42.664;23.240;2023-06-04T02:21:38;-9812.22;;;14.06;nan
9460;BME280;4768;42.664;23.240;2023-06-04T02:24:04;-9812.34;;;14.07;nan
9460;BME280;4768;42.664;23.240;2023-06-04T02:26:31;-9813.22;;;14.10;nan
9460;BME280;4768;42.664;23.240;2023-06-04T02:28:59;-9812.63;;;14.08;nan
9460;BME280;4768;42.664;23.240;2023-06-04T02:31:26;-9811.50;;;14.04;nan
9460;BME280;4768;42.664;23.240;2023-06-04T02:33:53;-9808.50;;;13.94;nan
9460;BME280;4768;42.664;23.240;2023-06-04T02:36:20;-9808.78;;;13.95;nan
9460;BME280;4768;42.664;23.240;2023-06-04T02:38:47;-9808.94;;;13.95;nan
9460;BME280;4768;42.664;23.240;2023-06-04T02:41:13;-9808.78;;;13.95;nan
9460;BME280;4768;42.664;23.240;2023-06-04T02:43:40;-9807.22;;;13.89;nan
9460;BME280;4768;42.664;23.240;2023-06-04T02:46:08;-9807.78;;;13.91;nan
9460;BME280;4768;42.664;23.240;2023-06-04T02:48:35;-9808.06;;;13.92;nan
9460;BME280;4768;42.664;23.240;2023-06-04T02:51:02;-9808.06;;;13.92;nan
9460;BME280;4768;42.664;23.240;2023-06-04T02:55:57;-9808.06;;;13.92;nan
9460;BME280;4768;42.664;23.240;2023-06-04T02:58:24;-9809.66;;;13.98;nan
9460;BME280;4768;42.664;23.240;2023-06-04T03:00:52;-9810.22;;;14.00;nan
9460;BME280;4768;42.664;23.240;2023-06-04T03:03:20;-9806.78;;;13.88;nan
9460;BME280;4768;42.664;23.240;2023-06-04T03:05:47;-9808.50;;;13.94;nan
9460;BME280;4768;42.664;23.240;2023-06-04T03:08:14;-9808.78;;;13.95;nan
9460;BME280;4768;42.664;23.240;2023-06-04T03:10:42;-9806.22;;;13.86;nan
9460;BME280;4768;42.664;23.240;2023-06-04T03:13:09;-9806.66;;;13.87;nan
9460;BME280;4768;42.664;23.240;2023-06-04T03:15:36;-9809.06;;;13.96;nan
9460;BME280;4768;42.664;23.240;2023-06-04T03:18:06;-9808.66;;;13.94;nan
9460;BME280;4768;42.664;23.240;2023-06-04T03:20:34;-9809.50;;;13.97;nan
9460;BME280;4768;42.664;23.240;2023-06-04T03:23:03;-9809.66;;;13.98;nan
9460;BME280;4768;42.664;23.240;2023-06-04T03:25:30;-9809.06;;;13.96;nan
9460;BME280;4768;42.664;23.240;2023-06-04T03:27:57;-9809.94;;;13.99;nan
9460;BME280;4768;42.664;23.240;2023-06-04T03:30:23;-9810.50;;;14.00;nan
9460;BME280;4768;42.664;23.240;2023-06-04T03:35:17;-9809.94;;;13.99;nan
9460;BME280;4768;42.664;23.240;2023-06-04T03:37:45;-9810.22;;;14.00;nan
9460;BME280;4768;42.664;23.240;2023-06-04T03:40:12;-9810.06;;;13.99;nan
9460;BME280;4768;42.664;23.240;2023-06-04T03:45:08;-9809.22;;;13.96;nan
9460;BME280;4768;42.664;23.240;2023-06-04T03:47:35;-9808.78;;;13.95;nan
9460;BME280;4768;42.664;23.240;2023-06-04T03:50:02;-9808.66;;;13.95;nan
9460;BME280;4768;42.664;23.240;2023-06-04T03:52:28;-9809.66;;;13.98;nan
9460;BME280;4768;42.664;23.240;2023-06-04T03:57:23;-9810.78;;;14.01;nan
9460;BME280;4768;42.664;23.240;2023-06-04T03:59:50;-9810.06;;;13.99;nan
9460;BME280;4768;42.664;23.240;2023-06-04T04:02:17;-9810.50;;;14.00;nan
9460;BME280;4768;42.664;23.240;2023-06-04T04:04:44;-9811.06;;;14.02;nan
9460;BME280;4768;42.664;23.240;2023-06-04T04:07:11;-9811.06;;;14.02;nan
9460;BME280;4768;42.664;23.240;2023-06-04T04:09:38;-9812.22;;;14.06;nan
9460;BME280;4768;42.664;23.240;2023-06-04T04:12:07;-9811.78;;;14.05;nan
9460;BME280;4768;42.664;23.240;2023-06-04T04:14:34;-9812.22;;;14.06;nan
9460;BME280;4768;42.664;23.240;2023-06-04T04:17:01;-9812.50;;;14.07;nan
9460;BME280;4768;42.664;23.240;2023-06-04T04:19:27;-9812.34;;;14.07;nan
9460;BME280;4768;42.664;23.240;2023-06-04T04:21:55;-9813.91;;;14.12;nan
9460;BME280;4768;42.664;23.240;2023-06-04T04:26:48;-9813.63;;;14.11;nan
9460;BME280;4768;42.664;23.240;2023-06-04T04:31:48;-9813.63;;;14.11;nan
9460;BME280;4768;42.664;23.240;2023-06-04T04:34:15;-9812.94;;;14.09;nan
9460;BME280;4768;42.664;23.240;2023-06-04T04:36:42;-9814.91;;;14.16;nan
9460;BME280;4768;42.664;23.240;2023-06-04T04:39:09;-9813.91;;;14.12;nan
9460;BME280;4768;42.664;23.240;2023-06-04T04:41:37;-9814.91;;;14.16;nan
9460;BME280;4768;42.664;23.240;2023-06-04T04:44:04;-9815.91;;;14.19;nan
9460;BME280;4768;42.664;23.240;2023-06-04T04:46:33;-9815.91;;;14.19;nan
9460;BME280;4768;42.664;23.240;2023-06-04T04:48:59;-9817.19;;;14.24;nan
9460;BME280;4768;42.664;23.240;2023-06-04T04:51:26;-9816.19;;;14.20;nan
9460;BME280;4768;42.664;23.240;2023-06-04T04:53:53;-9817.34;;;14.24;nan
9460;BME280;4768;42.664;23.240;2023-06-04T04:56:20;-9817.63;;;14.25;nan
9460;BME280;4768;42.664;23.240;2023-06-04T04:58:48;-9818.03;;;14.27;nan
9460;BME280;4768;42.664;23.240;2023-06-04T05:01:14;-9819.63;;;14.32;nan
9460;BME280;4768;42.664;23.240;2023-06-04T05:03:43;-9820.88;;;14.37;nan
9460;BME280;4768;42.664;23.240;2023-06-04T05:06:10;-9822.59;;;14.43;nan
9460;BME280;4768;42.664;23.240;2023-06-04T05:08:37;-9821.75;;;14.40;nan
9460;BME280;4768;42.664;23.240;2023-06-04T05:13:31;-9824.16;;;14.48;nan
9460;BME280;4768;42.664;23.240;2023-06-04T05:15:58;-9823.59;;;14.46;nan
9460;BME280;4768;42.664;23.240;2023-06-04T05:18:25;-9822.88;;;14.44;nan
9460;BME280;4768;42.664;23.240;2023-06-04T05:20:55;-9824.72;;;14.50;nan
9460;BME280;4768;42.664;23.240;2023-06-04T05:23:23;-9825.16;;;14.51;nan
9460;BME280;4768;42.664;23.240;2023-06-04T05:25:50;-9827.16;;;14.58;nan
9460;BME280;4768;42.664;23.240;2023-06-04T05:28:17;-9829.44;;;14.66;nan
9460;BME280;4768;42.664;23.240;2023-06-04T05:30:44;-9831.13;;;14.72;nan
9460;BME280;4768;42.664;23.240;2023-06-04T05:35:44;-9832.41;;;14.77;nan
9460;BME280;4768;42.664;23.240;2023-06-04T05:38:12;-9832.28;;;14.76;nan
9460;BME280;4768;42.664;23.240;2023-06-04T05:40:42;-9832.13;;;14.76;nan
9460;BME280;4768;42.664;23.240;2023-06-04T05:43:09;-9832.84;;;14.78;nan
9460;BME280;4768;42.664;23.240;2023-06-04T05:45:36;-9835.25;;;14.87;nan
9460;BME280;4768;42.664;23.240;2023-06-04T05:48:03;-9834.56;;;14.84;nan
9460;BME280;4768;42.664;23.240;2023-06-04T05:50:30;-9836.97;;;14.93;nan
9460;BME280;4768;42.664;23.240;2023-06-04T05:52:57;-9838.81;;;14.99;nan
9460;BME280;4768;42.664;23.240;2023-06-04T05:55:25;-9840.53;;;14.99;nan
9460;BME280;4768;42.664;23.240;2023-06-04T05:57:54;-9843.22;;;15.14;nan
9460;BME280;4768;42.664;23.240;2023-06-04T06:00:21;-9842.38;;;15.11;nan
9460;BME280;4768;42.664;23.240;2023-06-04T06:02:49;-9845.38;;;15.22;nan
9460;BME280;4768;42.664;23.240;2023-06-04T06:05:18;-9845.81;;;15.23;nan
9460;BME280;4768;42.664;23.240;2023-06-04T06:07:47;-9847.50;;;15.29;nan
9460;BME280;4768;42.664;23.240;2023-06-04T06:10:14;-9849.78;;;15.37;nan
9460;BME280;4768;42.664;23.240;2023-06-04T06:12:43;-9849.66;;;15.37;nan
9460;BME280;4768;42.664;23.240;2023-06-04T06:15:10;-9850.34;;;15.39;nan
9460;BME280;4768;42.664;23.240;2023-06-04T06:17:38;-9848.94;;;15.34;nan
9460;BME280;4768;42.664;23.240;2023-06-04T06:20:06;-9852.06;;;15.45;nan
9460;BME280;4768;42.664;23.240;2023-06-04T06:22:33;-9852.50;;;15.47;nan
9460;BME280;4768;42.664;23.240;2023-06-04T06:25:01;-9853.63;;;15.47;nan
9460;BME280;4768;42.664;23.240;2023-06-04T06:27:28;-9854.19;;;15.52;nan
9460;BME280;4768;42.664;23.240;2023-06-04T06:29:56;-9856.34;;;15.60;nan
9460;BME280;4768;42.664;23.240;2023-06-04T06:32:23;-9852.91;;;15.48;nan
9460;BME280;4768;42.664;23.240;2023-06-04T06:34:50;-9853.50;;;15.50;nan
9460;BME280;4768;42.664;23.240;2023-06-04T06:37:17;-9858.47;;;15.67;nan
9460;BME280;4768;42.664;23.240;2023-06-04T06:39:43;-9856.75;;;15.61;nan
9460;BME280;4768;42.664;23.240;2023-06-04T06:42:10;-9857.34;;;15.63;nan
9460;BME280;4768;42.664;23.240;2023-06-04T06:44:38;-9855.78;;;15.58;nan
9460;BME280;4768;42.664;23.240;2023-06-04T06:47:06;-9856.63;;;15.61;nan
9460;BME280;4768;42.664;23.240;2023-06-04T06:49:33;-9857.75;;;15.65;nan
9460;BME280;4768;42.664;23.240;2023-06-04T06:52:00;-9860.03;;;15.73;nan
9460;BME280;4768;42.664;23.240;2023-06-04T06:54:26;-9864.31;;;15.73;nan
9460;BME280;4768;42.664;23.240;2023-06-04T06:56:53;-9867.16;;;15.97;nan
9460;BME280;4768;42.664;23.240;2023-06-04T06:59:20;-9868.16;;;16.01;nan
9460;BME280;4768;42.664;23.240;2023-06-04T07:01:47;-9872.84;;;16.17;nan
9460;BME280;4768;42.664;23.240;2023-06-04T07:04:15;-9877.44;;;16.17;nan
9460;BME280;4768;42.664;23.240;2023-06-04T07:06:42;-9876.84;;;16.31;nan
9460;BME280;4768;42.664;23.240;2023-06-04T07:09:09;-9873.72;;;16.31;nan
9460;BME280;4768;42.664;23.240;2023-06-04T07:11:36;-9872.00;;;16.14;nan
9460;BME280;4768;42.664;23.240;2023-06-04T07:14:03;-9869.88;;;16.07;nan
9460;BME280;4768;42.664;23.240;2023-06-04T07:16:30;-9867.59;;;16.07;nan
9460;BME280;4768;42.664;23.240;2023-06-04T07:18:57;-9868.72;;;16.03;nan
9460;BME280;4768;42.664;23.240;2023-06-04T07:21:25;-9871.28;;;16.12;nan
9460;BME280;4768;42.664;23.240;2023-06-04T07:23:52;-9874.13;;;16.22;nan
9460;BME280;4768;42.664;23.240;2023-06-04T07:26:19;-9876.16;;;16.29;nan
9460;BME280;4768;42.664;23.240;2023-06-04T07:28:46;-9878.00;;;16.35;nan
9460;BME280;4768;42.664;23.240;2023-06-04T07:36:10;-9882.13;;;16.49;nan
9460;BME280;4768;42.664;23.240;2023-06-04T07:38:41;-9883.69;;;16.55;nan
9460;BME280;4768;42.664;23.240;2023-06-04T07:41:08;-9884.69;;;16.58;nan
9460;BME280;4768;42.664;23.240;2023-06-04T07:46:01;-9885.69;;;16.62;nan
9460;BME280;4768;42.664;23.240;2023-06-04T07:53:23;-9887.53;;;16.68;nan
9460;BME280;4768;42.664;23.240;2023-06-04T07:55:51;-9891.09;;;16.68;nan
9460;BME280;4768;42.664;23.240;2023-06-04T07:58:18;-9891.09;;;16.81;nan
9460;BME280;4768;42.664;23.240;2023-06-04T08:00:45;-9895.94;;;16.81;nan
9460;BME280;4768;42.664;23.240;2023-06-04T08:03:13;-9897.22;;;17.02;nan
9460;BME280;4768;42.664;23.240;2023-06-04T08:05:44;-9895.25;;;16.95;nan
9460;BME280;4768;42.664;23.240;2023-06-04T08:08:11;-9899.81;;;17.11;nan
9460;BME280;4768;42.664;23.240;2023-06-04T08:10:39;-9894.53;;;17.11;nan
9460;BME280;4768;42.664;23.240;2023-06-04T08:13:07;-9895.53;;;16.96;nan
9460;BME280;4768;42.664;23.240;2023-06-04T08:15:35;-9897.09;;;17.01;nan
9460;BME280;4768;42.664;23.240;2023-06-04T08:18:02;-9901.09;;;17.01;nan
9460;BME280;4768;42.664;23.240;2023-06-04T08:25:22;-9901.38;;;17.16;nan
9460;BME280;4768;42.664;23.240;2023-06-04T08:27:52;-9904.94;;;17.29;nan
9460;BME280;4768;42.664;23.240;2023-06-04T08:30:20;-9903.38;;;17.23;nan
9460;BME280;4768;42.664;23.240;2023-06-04T08:32:47;-9905.50;;;17.23;nan
9460;BME280;4768;42.664;23.240;2023-06-04T08:35:14;-9907.06;;;17.36;nan
9460;BME280;4768;42.664;23.240;2023-06-04T08:37:41;-9910.22;;;17.47;nan
9460;BME280;4768;42.664;23.240;2023-06-04T08:40:09;-9910.91;;;17.49;nan
9460;BME280;4768;42.664;23.240;2023-06-04T08:42:40;-9906.34;;;17.34;nan
9460;BME280;4768;42.664;23.240;2023-06-04T08:50:06;-9904.78;;;17.24;nan
9460;BME280;4768;42.664;23.240;2023-06-04T08:52:37;-9903.38;;;17.23;nan
9460;BME280;4768;42.664;23.240;2023-06-04T08:55:05;-9901.38;;;17.16;nan
9460;BME280;4768;42.664;23.240;2023-06-04T08:57:33;-9896.22;;;17.16;nan
9460;BME280;4768;42.664;23.240;2023-06-04T09:00:00;-9896.38;;;16.99;nan
9460;BME280;4768;42.664;23.240;2023-06-04T09:04:57;-9896.53;;;16.99;nan
9460;BME280;4768;42.664;23.240;2023-06-04T09:07:24;-9902.06;;;17.19;nan
9460;BME280;4768;42.664;23.240;2023-06-04T09:09:51;-9899.81;;;17.19;nan
9460;BME280;4768;42.664;23.240;2023-06-04T09:12:23;-9902.66;;;17.21;nan
9460;BME280;4768;42.664;23.240;2023-06-04T09:14:50;-9909.06;;;17.21;nan
9460;BME280;4768;42.664;23.240;2023-06-04T09:17:21;-9908.78;;;17.42;nan
9460;BME280;4768;42.664;23.240;2023-06-04T09:19:48;-9912.50;;;17.55;nan
9460;BME280;4768;42.664;23.240;2023-06-04T09:22:17;-9919.47;;;17.55;nan
9460;BME280;4768;42.664;23.240;2023-06-04T09:24:45;-9926.47;;;18.03;nan
9460;BME280;4768;42.664;23.240;2023-06-04T09:27:14;-9924.59;;;18.03;nan
9460;BME280;4768;42.664;23.240;2023-06-04T09:29:48;-9932.88;;;17.97;nan
9460;BME280;4768;42.664;23.240;2023-06-04T09:32:20;-9931.47;;;18.21;nan
9460;BME280;4768;42.664;23.240;2023-06-04T09:34:47;-9929.03;;;18.21;nan
9460;BME280;4768;42.664;23.240;2023-06-04T09:37:15;-9930.47;;;18.12;nan
9460;BME280;4768;42.664;23.240;2023-06-04T09:39:44;-9931.47;;;18.17;nan
9460;BME280;4768;42.664;23.240;2023-06-04T09:42:18;-9931.47;;;18.21;nan
9460;BME280;4768;42.664;23.240;2023-06-04T09:44:45;-9934.88;;;18.33;nan
9460;BME280;4768;42.664;23.240;2023-06-04T09:47:12;-9937.03;;;18.33;nan
9460;BME280;4768;42.664;23.240;2023-06-04T09:49:42;-9942.44;;;18.59;nan
9460;BME280;4768;42.664;23.240;2023-06-04T09:52:09;-9953.56;;;18.97;nan
9460;BME280;4768;42.664;23.240;2023-06-04T09:54:37;-9956.00;;;18.97;nan
9460;BME280;4768;42.664;23.240;2023-06-04T09:57:13;-9940.31;;;18.51;nan
9460;BME280;4768;42.664;23.240;2023-06-04T09:59:43;-9943.31;;;18.62;nan
9460;BME280;4768;42.664;23.240;2023-06-04T10:07:09;-9956.72;;;19.08;nan
9460;BME280;4768;42.664;23.240;2023-06-04T10:09:38;-9941.59;;;18.56;nan
9460;BME280;4768;42.664;23.240;2023-06-04T10:12:13;-9947.88;;;18.56;nan
9460;BME280;4768;42.664;23.240;2023-06-04T10:14:45;-9947.44;;;18.78;nan
9460;BME280;4768;42.664;23.240;2023-06-04T10:17:15;-9952.00;;;18.76;nan
9460;BME280;4768;42.664;23.240;2023-06-04T10:19:43;-9963.00;;;18.92;nan
9460;BME280;4768;42.664;23.240;2023-06-04T10:22:12;-9959.28;;;19.30;nan
9460;BME280;4768;42.664;23.240;2023-06-04T10:24:39;-9955.28;;;19.17;nan
9460;BME280;4768;42.664;23.240;2023-06-04T10:27:07;-9966.28;;;19.03;nan
9460;BME280;4768;42.664;23.240;2023-06-04T10:29:38;-9977.28;;;19.41;nan
9460;BME280;4768;42.664;23.240;2023-06-04T10:32:05;-9970.56;;;19.56;nan
9460;BME280;4768;42.664;23.240;2023-06-04T10:34:32;-9961.28;;;19.56;nan
9460;BME280;4768;42.664;23.240;2023-06-04T10:36:59;-9957.44;;;19.24;nan
9460;BME280;4768;42.664;23.240;2023-06-04T10:39:26;-9962.56;;;19.11;nan
9460;BME280;4768;42.664;23.240;2023-06-04T10:41:58;-9959.28;;;19.17;nan
9460;BME280;4768;42.664;23.240;2023-06-04T10:44:25;-9973.28;;;19.17;nan
9460;BME280;4768;42.664;23.240;2023-06-04T10:46:53;-9969.00;;;19.66;nan
9460;BME280;4768;42.664;23.240;2023-06-04T10:49:26;-9973.13;;;19.51;nan
9460;BME280;4768;42.664;23.240;2023-06-04T10:51:53;-9984.41;;;20.04;nan
9460;BME280;4768;42.664;23.240;2023-06-04T10:54:23;-9982.84;;;19.99;nan
9460;BME280;4768;42.664;23.240;2023-06-04T10:56:51;-9983.69;;;19.99;nan
9460;BME280;4768;42.664;23.240;2023-06-04T10:59:19;-9986.69;;;20.02;nan
9460;BME280;4768;42.664;23.240;2023-06-04T11:01:46;-9981.00;;;20.12;nan
9460;BME280;4768;42.664;23.240;2023-06-04T11:04:21;-9970.56;;;19.92;nan
9460;BME280;4768;42.664;23.240;2023-06-04T11:07:00;-9967.00;;;19.56;nan
9460;BME280;4768;42.664;23.240;2023-06-04T11:09:29;-9966.28;;;19.41;nan
9460;BME280;4768;42.664;23.240;2023-06-04T11:11:57;-9974.84;;;19.41;nan
9460;BME280;4768;42.664;23.240;2023-06-04T11:14:24;-9977.56;;;19.71;nan
9460;BME280;4768;42.664;23.240;2023-06-04T11:16:51;-9967.28;;;19.81;nan
9460;BME280;4768;42.664;23.240;2023-06-04T11:19:17;-9969.44;;;19.45;nan
9460;BME280;4768;42.664;23.240;2023-06-04T11:21:45;-9960.16;;;19.52;nan
9460;BME280;4768;42.664;23.240;2023-06-04T11:24:12;-9963.44;;;19.32;nan
9460;BME280;4768;42.664;23.240;2023-06-04T11:31:41;-9985.84;;;19.73;nan
9460;BME280;4768;42.664;23.240;2023-06-04T11:34:08;-9976.41;;;19.77;nan
9460;BME280;4768;42.664;23.240;2023-06-04T11:36:37;-9974.00;;;19.77;nan
9460;BME280;4768;42.664;23.240;2023-06-04T11:39:06;-9977.69;;;19.68;nan
9460;BME280;4768;42.664;23.240;2023-06-04T11:41:33;-9973.84;;;19.81;nan
9460;BME280;4768;42.664;23.240;2023-06-04T11:44:02;-9982.72;;;19.68;nan
9460;BME280;4768;42.664;23.240;2023-06-04T11:46:32;-9997.56;;;20.50;nan
9460;BME280;4768;42.664;23.240;2023-06-04T11:48:59;-9993.41;;;20.50;nan
9460;BME280;4768;42.664;23.240;2023-06-04T11:51:26;-9995.41;;;20.42;nan
9460;BME280;4768;42.664;23.240;2023-06-04T11:53:53;-9995.41;;;20.42;nan
9460;BME280;4768;42.664;23.240;2023-06-04T11:56:24;-9987.84;;;20.25;nan
9460;BME280;4768;42.664;23.240;2023-06-04T11:58:52;-9996.41;;;20.16;nan
9460;BME280;4768;42.664;23.240;2023-06-04T12:01:20;-9996.84;;;20.46;nan
9460;BME280;4768;42.664;23.240;2023-06-04T12:08:47;-9971.56;;;19.60;nan
9460;BME280;4768;42.664;23.240;2023-06-04T12:11:27;-9974.28;;;19.60;nan
9460;BME280;4768;42.664;23.240;2023-06-04T12:13:57;-9972.84;;;19.69;nan
9460;BME280;4768;42.664;23.240;2023-06-04T12:16:24;-9981.56;;;19.64;nan
9460;BME280;4768;42.664;23.240;2023-06-04T12:18:51;-9972.72;;;19.94;nan
9460;BME280;4768;42.664;23.240;2023-06-04T12:21:21;-9958.72;;;19.64;nan
9460;BME280;4768;42.664;23.240;2023-06-04T12:23:53;-9952.00;;;19.15;nan
9460;BME280;4768;42.664;23.240;2023-06-04T12:26:23;-9945.00;;;18.92;nan
9460;BME280;4768;42.664;23.240;2023-06-04T12:29:02;-9943.44;;;18.68;nan
9460;BME280;4768;42.664;23.240;2023-06-04T12:31:29;-9947.31;;;18.62;nan
9460;BME280;4768;42.664;23.240;2023-06-04T12:33:59;-9948.16;;;18.79;nan
9460;BME280;4768;42.664;23.240;2023-06-04T12:36:26;-9950.44;;;18.79;nan
9460;BME280;4768;42.664;23.240;2023-06-04T12:38:58;-9940.72;;;18.53;nan
9460;BME280;4768;42.664;23.240;2023-06-04T12:41:25;-9944.00;;;18.64;nan
9460;BME280;4768;42.664;23.240;2023-06-04T12:43:52;-9944.72;;;18.67;nan
9460;BME280;4768;42.664;23.240;2023-06-04T12:46:21;-9950.56;;;18.87;nan
9460;BME280;4768;42.664;23.240;2023-06-04T12:48:54;-9943.03;;;18.87;nan
9460;BME280;4768;42.664;23.240;2023-06-04T13:01:09;-9943.31;;;18.62;nan
9460;BME280;4768;42.664;23.240;2023-06-04T13:03:40;-9940.88;;;18.53;nan
9460;BME280;4768;42.664;23.240;2023-06-04T13:06:07;-9939.59;;;18.49;nan
9460;BME280;4768;42.664;23.240;2023-06-04T13:08:34;-9941.31;;;18.49;nan
9460;BME280;4768;42.664;23.240;2023-06-04T13:11:01;-9939.44;;;18.48;nan
9460;BME280;4768;42.664;23.240;2023-06-04T13:13:28;-9935.47;;;18.35;nan
9460;BME280;4768;42.664;23.240;2023-06-04T13:15:55;-9925.63;;;18.35;nan
9460;BME280;4768;42.664;23.240;2023-06-04T13:18:22;-9916.63;;;17.69;nan
9460;BME280;4768;42.664;23.240;2023-06-04T13:20:51;-9916.91;;;17.70;nan
9460;BME280;4768;42.664;23.240;2023-06-04T13:23:18;-9914.47;;;17.62;nan
9460;BME280;4768;42.664;23.240;2023-06-04T13:25:45;-9918.47;;;17.76;nan
9460;BME280;4768;42.664;23.240;2023-06-04T13:28:12;-9917.75;;;17.76;nan
9460;BME280;4768;42.664;23.240;2023-06-04T13:30:39;-9921.19;;;17.85;nan
9460;BME280;4768;42.664;23.240;2023-06-04T13:33:06;-9925.31;;;17.99;nan
9460;BME280;4768;42.664;23.240;2023-06-04T13:35:32;-9926.75;;;18.04;nan
9460;BME280;4768;42.664;23.240;2023-06-04T13:42:55;-9937.31;;;18.41;nan
9460;BME280;4768;42.664;23.240;2023-06-04T13:47:48;-9940.88;;;18.53;nan
9460;BME280;4768;42.664;23.240;2023-06-04T13:50:15;-9944.00;;;18.53;nan
9460;BME280;4768;42.664;23.240;2023-06-04T13:57:38;-9950.28;;;18.86;nan
9460;BME280;4768;42.664;23.240;2023-06-04T14:00:06;-9950.00;;;18.86;nan
9460;BME280;4768;42.664;23.240;2023-06-04T14:02:33;-9952.88;;;18.85;nan
9460;BME280;4768;42.664;23.240;2023-06-04T14:05:00;-9952.72;;;18.95;nan
9460;BME280;4768;42.664;23.240;2023-06-04T14:07:27;-9953.16;;;18.94;nan
9460;BME280;4768;42.664;23.240;2023-06-04T14:09:53;-9953.56;;;18.96;nan
9460;BME280;4768;42.664;23.240;2023-06-04T14:14:49;-9946.88;;;18.74;nan
9460;BME280;4768;42.664;23.240;2023-06-04T14:17:16;-9944.16;;;18.74;nan
9460;BME280;4768;42.664;23.240;2023-06-04T14:19:43;-9943.72;;;18.63;nan
9460;BME280;4768;42.664;23.240;2023-06-04T14:22:10;-9942.72;;;18.63;nan
9460;BME280;4768;42.664;23.240;2023-06-04T14:24:37;-9941.16;;;18.60;nan
9460;BME280;4768;42.664;23.240;2023-06-04T14:27:04;-9940.44;;;18.54;nan
9460;BME280;4768;42.664;23.240;2023-06-04T14:29:34;-9940.88;;;18.52;nan
9460;BME280;4768;42.664;23.240;2023-06-04T14:32:01;-9939.31;;;18.53;nan
9460;BME280;4768;42.664;23.240;2023-06-04T14:34:29;-9937.75;;;18.42;nan
9460;BME280;4768;42.664;23.240;2023-06-04T14:36:57;-9937.75;;;18.42;nan
9460;BME280;4768;42.664;23.240;2023-06-04T14:39:25;-9936.59;;;18.42;nan
9460;BME280;4768;42.664;23.240;2023-06-04T14:41:51;-9936.03;;;18.39;nan
9460;BME280;4768;42.664;23.240;2023-06-04T14:44:18;-9931.75;;;18.37;nan
9460;BME280;4768;42.664;23.240;2023-06-04T14:46:49;-9927.31;;;18.22;nan
9460;BME280;4768;42.664;23.240;2023-06-04T14:49:16;-9915.63;;;17.66;nan
9460;BME280;4768;42.664;23.240;2023-06-04T14:51:43;-9902.22;;;17.19;nan
9460;BME280;4768;42.664;23.240;2023-06-04T14:54:10;-9892.25;;;16.85;nan
9460;BME280;4768;42.664;23.240;2023-06-04T14:56:36;-9884.97;;;16.59;nan
9460;BME280;4768;42.664;23.240;2023-06-04T14:59:03;-9878.72;;;16.59;nan
9460;BME280;4768;42.664;23.240;2023-06-04T15:01:35;-9875.00;;;16.25;nan